createdAt,value
2023-02-02T00:01:32.672Z,36.05
2023-02-02T00:03:59.862Z,33.88
2023-02-02T00:06:28.148Z,33.92
2023-02-02T00:08:57.997Z,24.67
2023-02-02T00:11:25.306Z,25.55
2023-02-02T00:13:52.026Z,25.65
2023-02-02T00:16:22.035Z,28.02
2023-02-02T00:18:49.326Z,35.40
2023-02-02T00:21:15.754Z,34.80
2023-02-02T00:23:42.327Z,38.22
2023-02-02T00:26:09.320Z,35.17
2023-02-02T00:28:35.895Z,29.10
2023-02-02T00:31:02.453Z,32.30
2023-02-02T00:33:28.999Z,31.75
2023-02-02T00:35:55.450Z,31.35
2023-02-02T00:38:22.906Z,27.27
2023-02-02T00:40:49.553Z,35.15
2023-02-02T00:43:15.992Z,31.60
2023-02-02T00:45:42.740Z,38.75
2023-02-02T00:48:10.845Z,33.15
2023-02-02T00:50:37.482Z,40.03
2023-02-02T00:53:04.037Z,25.85
2023-02-02T00:55:30.727Z,30.08
2023-02-02T00:57:57.443Z,28.65
2023-02-02T01:00:25.872Z,36.30
2023-02-02T01:02:53.866Z,31.73
2023-02-02T01:05:20.915Z,30.02
2023-02-02T01:07:47.881Z,33.28
2023-02-02T01:10:16.209Z,42.08
2023-02-02T01:12:43.676Z,25.73
2023-02-02T01:15:11.730Z,30.70
2023-02-02T01:17:38.715Z,42.40
2023-02-02T01:20:07.023Z,32.72
2023-02-02T01:22:34.790Z,29.38
2023-02-02T01:25:01.845Z,37.72
2023-02-02T01:27:28.308Z,42.00
2023-02-02T01:29:54.773Z,44.53
2023-02-02T01:32:21.844Z,33.97
2023-02-02T01:34:48.243Z,38.08
2023-02-02T01:37:14.784Z,31.00
2023-02-02T01:39:41.279Z,34.05
2023-02-02T01:42:19.870Z,41.40
2023-02-02T01:45:20.375Z,32.53
2023-02-02T01:47:51.875Z,34.47
2023-02-02T01:50:20.970Z,33.67
2023-02-02T01:52:50.250Z,28.08
2023-02-02T01:55:21.637Z,29.15
2023-02-02T02:00:27.116Z,27.88
2023-02-02T02:03:03.790Z,33.78
2023-02-02T02:09:29.064Z,24.20
2023-02-02T02:11:55.804Z,38.17
2023-02-02T02:14:41.946Z,36.17
2023-02-02T02:17:20.970Z,36.10
2023-02-02T02:20:36.065Z,36.08
2023-02-02T02:23:49.146Z,32.92
2023-02-02T02:26:36.536Z,37.90
2023-02-02T02:29:25.815Z,28.95
2023-02-02T02:32:01.186Z,39.30
2023-02-02T02:34:42.039Z,33.20
2023-02-02T02:37:23.603Z,30.83
2023-02-02T02:40:04.360Z,27.77
2023-02-02T02:42:35.575Z,27.27
2023-02-02T02:45:03.887Z,34.78
2023-02-02T02:47:32.222Z,29.83
2023-02-02T02:49:58.803Z,38.38
2023-02-02T02:52:25.435Z,29.17
2023-02-02T02:54:55.144Z,29.20
2023-02-02T02:57:46.270Z,26.83
2023-02-02T03:00:33.838Z,27.15
2023-02-02T03:03:28.381Z,25.70
2023-02-02T03:06:20.922Z,25.65
2023-02-02T03:08:59.123Z,31.00
2023-02-02T03:11:25.712Z,23.95
2023-02-02T03:13:52.659Z,27.08
2023-02-02T03:16:19.294Z,22.23
2023-02-02T03:18:45.833Z,25.92
2023-02-02T03:21:12.392Z,20.48
2023-02-02T03:23:39.279Z,32.95
2023-02-02T03:26:06.838Z,21.65
2023-02-02T03:28:34.325Z,24.58
2023-02-02T03:31:02.137Z,23.98
2023-02-02T03:33:29.896Z,19.73
2023-02-02T03:35:56.384Z,17.95
2023-02-02T03:38:22.842Z,18.42
2023-02-02T03:40:51.007Z,24.15
2023-02-02T03:43:24.463Z,18.40
2023-02-02T03:46:04.235Z,22.08
2023-02-02T03:48:31.269Z,19.52
2023-02-02T03:50:58.118Z,18.73
2023-02-02T03:53:24.644Z,24.35
2023-02-02T03:55:51.126Z,18.33
2023-02-02T03:58:17.660Z,17.10
2023-02-02T04:00:44.093Z,18.75
2023-02-02T04:03:10.625Z,14.90
2023-02-02T04:05:37.107Z,10.82
2023-02-02T04:08:03.589Z,16.58
2023-02-02T04:10:30.068Z,16.63
2023-02-02T04:12:56.698Z,12.48
2023-02-02T04:15:23.419Z,21.63
2023-02-02T04:17:50.055Z,15.80
2023-02-02T04:20:16.817Z,18.73
2023-02-02T04:22:43.368Z,27.10
2023-02-02T04:25:09.855Z,21.33
2023-02-02T04:27:36.455Z,15.60
2023-02-02T04:30:03.095Z,13.65
2023-02-02T04:32:29.565Z,17.88
2023-02-02T04:34:56.078Z,18.75
2023-02-02T04:37:22.540Z,19.60
2023-02-02T04:39:49.081Z,18.67
2023-02-02T04:42:15.503Z,21.00
2023-02-02T04:44:43.919Z,18.90
2023-02-02T04:47:10.477Z,17.77
2023-02-02T04:49:36.993Z,19.10
2023-02-02T04:52:03.574Z,19.63
2023-02-02T04:54:30.203Z,13.60
2023-02-02T04:56:56.755Z,13.50
2023-02-02T04:59:23.339Z,16.45
2023-02-02T05:01:50.996Z,16.70
2023-02-02T05:04:17.498Z,12.57
2023-02-02T05:06:43.996Z,18.80
2023-02-02T05:09:11.144Z,17.77
2023-02-02T05:11:39.108Z,12.30
2023-02-02T05:14:05.536Z,28.05
2023-02-02T05:16:32.060Z,17.42
2023-02-02T05:18:59.565Z,16.35
2023-02-02T05:21:26.125Z,23.83
2023-02-02T05:23:52.643Z,26.77
2023-02-02T05:26:25.122Z,15.35
2023-02-02T05:28:52.171Z,19.63
2023-02-02T05:31:19.609Z,22.98
2023-02-02T05:33:46.323Z,14.43
2023-02-02T05:36:12.804Z,26.33
2023-02-02T05:38:39.539Z,20.85
2023-02-02T05:41:06.062Z,17.95
2023-02-02T05:43:33.413Z,15.00
2023-02-02T05:45:59.923Z,20.20
2023-02-02T05:48:27.236Z,19.45
2023-02-02T05:51:01.926Z,23.73
2023-02-02T05:53:30.176Z,22.42
2023-02-02T05:55:56.753Z,21.90
2023-02-02T05:58:23.329Z,17.17
2023-02-02T06:00:49.897Z,13.68
2023-02-02T06:03:16.429Z,20.98
2023-02-02T06:05:42.961Z,14.48
2023-02-02T06:08:09.467Z,17.23
2023-02-02T06:10:39.070Z,16.10
2023-02-02T06:13:05.514Z,19.35
2023-02-02T06:15:33.011Z,26.92
2023-02-02T06:18:00.289Z,17.70
2023-02-02T06:20:27.078Z,22.75
2023-02-02T06:22:53.611Z,15.05
2023-02-02T06:25:20.040Z,15.65
2023-02-02T06:27:46.615Z,16.75
2023-02-02T06:30:13.811Z,16.67
2023-02-02T06:32:40.389Z,14.65
2023-02-02T06:35:08.742Z,22.33
2023-02-02T06:37:35.297Z,18.83
2023-02-02T06:40:01.837Z,19.40
2023-02-02T06:42:28.507Z,18.33
2023-02-02T06:44:54.997Z,13.98
2023-02-02T06:47:21.532Z,30.42
2023-02-02T06:49:48.101Z,21.23
2023-02-02T06:52:14.605Z,22.13
2023-02-02T06:54:41.078Z,15.65
2023-02-02T06:57:09.332Z,15.85
2023-02-02T06:59:35.747Z,21.48
2023-02-02T07:02:02.361Z,20.63
2023-02-02T07:04:28.899Z,16.27
2023-02-02T07:06:55.457Z,18.13
2023-02-02T07:09:21.880Z,12.85
2023-02-02T07:11:48.321Z,20.90
2023-02-02T07:14:14.819Z,23.52
2023-02-02T07:16:41.263Z,22.63
2023-02-02T07:19:07.839Z,22.05
2023-02-02T07:21:36.981Z,17.38
2023-02-02T07:24:04.787Z,19.08
2023-02-02T07:26:31.361Z,14.93
2023-02-02T07:28:57.971Z,22.10
2023-02-02T07:31:26.563Z,21.60
2023-02-02T07:33:54.212Z,19.48
2023-02-02T07:36:23.870Z,20.08
2023-02-02T07:38:57.349Z,22.50
2023-02-02T07:41:24.610Z,24.85
2023-02-02T07:43:51.759Z,28.73
2023-02-02T07:46:19.557Z,26.63
2023-02-02T07:48:46.154Z,25.73
2023-02-02T07:51:15.782Z,26.50
2023-02-02T07:53:47.259Z,26.05
2023-02-02T07:56:22.268Z,28.08
2023-02-02T07:58:52.211Z,25.92
2023-02-02T08:01:20.474Z,20.58
2023-02-02T08:03:47.348Z,29.70
2023-02-02T08:06:21.969Z,27.50
2023-02-02T08:08:49.341Z,21.30
2023-02-02T08:11:18.482Z,22.17
2023-02-02T08:13:49.293Z,23.50
2023-02-02T08:16:16.195Z,17.98
2023-02-02T08:18:43.927Z,27.67
2023-02-02T08:21:11.356Z,21.83
2023-02-02T08:23:39.897Z,31.38
2023-02-02T08:26:08.986Z,24.50
2023-02-02T08:28:36.502Z,21.65
2023-02-02T08:31:06.649Z,22.58
2023-02-02T08:33:33.192Z,19.38
2023-02-02T08:35:59.935Z,29.48
2023-02-02T08:38:26.430Z,25.83
2023-02-02T08:40:52.926Z,22.77
2023-02-02T08:43:19.362Z,31.08
2023-02-02T08:46:03.711Z,14.02
2023-02-02T08:48:31.511Z,24.45
2023-02-02T08:51:00.017Z,19.73
2023-02-02T08:53:27.673Z,18.67
2023-02-02T08:56:06.736Z,22.00
2023-02-02T08:58:34.356Z,26.35
2023-02-02T09:01:09.035Z,13.85
2023-02-02T09:03:38.892Z,20.48
2023-02-02T09:06:31.032Z,30.00
2023-02-02T09:08:57.514Z,26.05
2023-02-02T09:11:24.251Z,22.17
2023-02-02T09:13:55.295Z,23.13
2023-02-02T09:16:22.837Z,21.58
2023-02-02T09:18:49.572Z,16.90
2023-02-02T09:21:17.543Z,15.73
2023-02-02T09:23:46.173Z,23.35
2023-02-02T09:26:27.691Z,19.83
2023-02-02T09:29:02.436Z,22.80
2023-02-02T09:31:30.935Z,18.38
2023-02-02T09:34:01.705Z,25.02
2023-02-02T09:36:28.227Z,17.60
2023-02-02T09:38:54.862Z,20.05
2023-02-02T09:41:39.498Z,15.38
2023-02-02T09:44:30.204Z,23.02
2023-02-02T09:47:08.911Z,17.88
2023-02-02T09:49:57.035Z,26.27
2023-02-02T09:52:41.427Z,21.63
2023-02-02T09:55:23.340Z,16.70
2023-02-02T09:57:55.035Z,19.20
2023-02-02T10:00:37.992Z,26.38
2023-02-02T10:03:24.617Z,18.75
2023-02-02T10:06:07.542Z,19.48
2023-02-02T10:08:44.193Z,16.45
2023-02-02T10:12:01.962Z,15.50
2023-02-02T10:14:36.686Z,15.73
2023-02-02T10:17:38.852Z,21.17
2023-02-02T10:20:23.923Z,22.77
2023-02-02T10:22:51.086Z,16.48
2023-02-02T10:25:17.954Z,19.50
2023-02-02T10:27:58.367Z,18.60
2023-02-02T10:30:36.696Z,13.02
2023-02-02T10:33:12.596Z,19.35
2023-02-02T10:35:47.295Z,12.55
2023-02-02T10:38:25.589Z,19.15
2023-02-02T10:41:05.206Z,15.10
2023-02-02T10:43:57.432Z,16.40
2023-02-02T10:47:05.501Z,15.43
2023-02-02T10:49:37.440Z,11.40
2023-02-02T10:52:10.959Z,20.42
2023-02-02T10:54:56.421Z,16.30
2023-02-02T10:58:01.481Z,14.15
2023-02-02T11:00:58.250Z,24.00
2023-02-02T11:03:30.276Z,12.85
2023-02-02T11:06:20.901Z,14.35
2023-02-02T11:08:52.740Z,11.75
2023-02-02T11:11:26.281Z,18.50
2023-02-02T11:13:58.236Z,13.95
2023-02-02T11:16:38.851Z,10.18
2023-02-02T11:19:29.895Z,14.50
2023-02-02T11:21:58.987Z,10.02
2023-02-02T11:24:41.319Z,11.50
2023-02-02T11:27:21.181Z,18.85
2023-02-02T11:29:56.787Z,23.75
2023-02-02T11:32:28.165Z,13.75
2023-02-02T11:35:06.557Z,15.55
2023-02-02T11:37:38.247Z,20.20
2023-02-02T11:42:52.497Z,13.68
2023-02-02T11:45:27.349Z,17.67
2023-02-02T11:47:53.886Z,18.10
2023-02-02T11:50:27.524Z,13.57
2023-02-02T11:52:54.540Z,18.75
2023-02-02T11:55:27.933Z,10.88
2023-02-02T11:58:27.315Z,13.90
2023-02-02T12:01:01.060Z,15.20
2023-02-02T12:03:32.355Z,14.07
2023-02-02T12:05:59.632Z,18.20
2023-02-02T12:08:26.287Z,16.35
2023-02-02T12:11:03.556Z,13.95
2023-02-02T12:14:07.846Z,21.02
2023-02-02T12:16:53.578Z,14.20
2023-02-02T12:19:26.088Z,14.98
2023-02-02T12:22:03.094Z,11.02
2023-02-02T12:24:38.013Z,10.68
2023-02-02T12:27:18.822Z,11.80
2023-02-02T12:30:03.575Z,14.27
2023-02-02T12:32:42.085Z,6.97
2023-02-02T12:35:21.406Z,11.10
2023-02-02T12:38:05.566Z,8.73
2023-02-02T12:40:58.303Z,10.70
2023-02-02T12:43:47.219Z,9.65
2023-02-02T12:46:41.325Z,14.80
2023-02-02T12:49:35.261Z,11.40
2023-02-02T12:52:20.406Z,14.10
2023-02-02T12:54:59.061Z,11.02
2023-02-02T12:58:02.303Z,7.15
2023-02-02T13:01:17.195Z,10.15
2023-02-02T13:03:46.300Z,6.60
2023-02-02T13:06:21.625Z,13.55
2023-02-02T13:08:56.219Z,13.23
2023-02-02T13:11:36.151Z,12.15
2023-02-02T13:14:23.093Z,15.20
2023-02-02T13:16:54.304Z,10.63
2023-02-02T13:19:35.833Z,11.65
2023-02-02T13:22:06.287Z,10.80
2023-02-02T13:24:37.556Z,15.18
2023-02-02T13:27:07.439Z,9.30
2023-02-02T13:29:58.496Z,16.52
2023-02-02T13:32:37.509Z,11.37
2023-02-02T13:35:27.389Z,11.48
2023-02-02T13:38:16.364Z,12.98
2023-02-02T13:40:44.065Z,13.07
2023-02-02T13:43:29.222Z,9.38
2023-02-02T13:46:18.644Z,11.73
2023-02-02T13:48:47.827Z,14.82
2023-02-02T13:51:49.818Z,21.23
2023-02-02T13:57:16.264Z,6.60
2023-02-02T13:59:57.302Z,9.82
2023-02-02T14:02:35.698Z,9.18
2023-02-02T14:05:05.864Z,10.60
2023-02-02T14:07:42.001Z,5.65
2023-02-02T14:10:21.413Z,9.07
2023-02-02T14:12:48.258Z,18.55
2023-02-02T14:15:15.017Z,13.95
2023-02-02T14:17:41.959Z,9.55
2023-02-02T14:20:40.249Z,13.10
2023-02-02T14:23:45.219Z,11.38
2023-02-02T14:26:12.569Z,12.98
2023-02-02T14:28:46.025Z,11.43
2023-02-02T14:31:52.262Z,9.32
2023-02-02T14:34:27.793Z,15.10
2023-02-02T14:37:30.046Z,15.57
2023-02-02T14:40:12.466Z,11.63
2023-02-02T14:43:21.737Z,11.07
2023-02-02T14:46:10.446Z,8.90
2023-02-02T14:48:39.155Z,10.50
2023-02-02T14:51:14.289Z,5.45
2023-02-02T14:53:49.256Z,8.77
2023-02-02T14:56:17.490Z,9.95
2023-02-02T14:58:53.417Z,8.57
2023-02-02T15:01:23.719Z,7.65
2023-02-02T15:03:57.523Z,9.90
2023-02-02T15:06:34.617Z,5.93
2023-02-02T15:09:20.038Z,7.20
2023-02-02T15:12:00.790Z,4.40
2023-02-02T15:14:55.970Z,9.02
2023-02-02T15:17:22.636Z,9.27
2023-02-02T15:19:58.875Z,5.53
2023-02-02T15:22:48.163Z,8.25
2023-02-02T15:25:24.357Z,8.90
2023-02-02T15:28:02.981Z,6.30
2023-02-02T15:30:33.641Z,9.23
2023-02-02T15:33:06.459Z,8.93
2023-02-02T15:35:37.196Z,6.13
2023-02-02T15:40:37.465Z,5.63
2023-02-02T15:43:09.139Z,7.32
2023-02-02T15:48:20.097Z,6.78
2023-02-02T15:50:48.420Z,7.93
2023-02-02T15:53:19.614Z,9.63
2023-02-02T15:55:46.276Z,6.93
2023-02-02T15:58:32.261Z,5.93
2023-02-02T16:01:14.308Z,4.40
2023-02-02T16:03:54.270Z,6.25
2023-02-02T16:06:21.549Z,9.57
2023-02-02T16:08:49.393Z,7.00
2023-02-02T16:11:23.829Z,12.70
2023-02-02T16:13:58.241Z,8.98
2023-02-02T16:16:30.415Z,6.95
2023-02-02T16:19:24.475Z,4.40
2023-02-02T16:21:53.987Z,6.13
2023-02-02T16:24:32.638Z,2.92
2023-02-02T16:27:01.091Z,7.75
2023-02-02T16:29:28.907Z,6.43
2023-02-02T16:31:56.528Z,5.30
2023-02-02T16:34:41.316Z,14.70
2023-02-02T16:37:13.435Z,6.25
2023-02-02T16:39:40.141Z,7.30
2023-02-02T16:42:31.759Z,5.60
2023-02-02T16:45:00.385Z,13.45
2023-02-02T16:47:26.841Z,6.05
2023-02-02T16:49:55.824Z,7.88
2023-02-02T16:52:22.558Z,11.25
2023-02-02T16:54:55.007Z,9.02
2023-02-02T16:57:33.946Z,9.98
2023-02-02T17:00:06.196Z,9.23
2023-02-02T17:02:38.731Z,9.25
2023-02-02T17:05:07.775Z,9.85
2023-02-02T17:07:37.574Z,9.25
2023-02-02T17:10:18.168Z,9.27
2023-02-02T17:12:45.883Z,10.82
2023-02-02T17:15:18.357Z,5.88
2023-02-02T17:17:47.982Z,7.38
2023-02-02T17:20:15.899Z,8.35
2023-02-02T17:22:45.445Z,11.10
2023-02-02T17:25:35.792Z,11.02
2023-02-02T17:28:03.937Z,14.60
2023-02-02T17:30:30.730Z,11.48
2023-02-02T17:32:57.482Z,12.57
2023-02-02T17:35:27.078Z,12.18
2023-02-02T17:37:54.514Z,5.32
2023-02-02T17:40:23.578Z,9.02
2023-02-02T17:42:52.215Z,15.02
2023-02-02T17:45:24.937Z,8.68
2023-02-02T17:47:51.701Z,9.77
2023-02-02T17:50:18.798Z,7.97
2023-02-02T17:52:46.180Z,12.25
2023-02-02T17:55:15.667Z,6.93
2023-02-02T17:57:42.102Z,11.02
2023-02-02T18:00:10.029Z,10.98
2023-02-02T18:02:36.594Z,11.32
2023-02-02T18:05:04.674Z,7.65
2023-02-02T18:07:31.768Z,8.77
2023-02-02T18:09:58.333Z,14.18
2023-02-02T18:12:24.813Z,10.82
2023-02-02T18:14:51.291Z,12.63
2023-02-02T18:17:17.693Z,16.73
2023-02-02T18:19:47.498Z,11.52
2023-02-02T18:22:14.033Z,10.50
2023-02-02T18:24:41.141Z,12.85
2023-02-02T18:27:08.373Z,12.32
2023-02-02T18:29:35.383Z,8.45
2023-02-02T18:32:02.579Z,6.35
2023-02-02T18:34:33.579Z,7.72
2023-02-02T18:37:00.382Z,7.00
2023-02-02T18:39:27.111Z,11.10
2023-02-02T18:41:53.615Z,17.75
2023-02-02T18:44:20.151Z,11.27
2023-02-02T18:46:46.660Z,12.05
2023-02-02T18:49:13.186Z,7.57
2023-02-02T18:51:40.113Z,13.02
2023-02-02T18:54:06.624Z,8.35
2023-02-02T18:56:33.115Z,12.70
2023-02-02T18:58:59.648Z,7.53
2023-02-02T19:01:26.593Z,5.65
2023-02-02T19:03:57.118Z,11.52
2023-02-02T19:06:43.557Z,9.15
2023-02-02T19:09:10.323Z,13.18
2023-02-02T19:11:45.416Z,9.38
2023-02-02T19:14:19.526Z,8.60
2023-02-02T19:16:48.747Z,11.60
2023-02-02T19:19:29.096Z,15.50
2023-02-02T19:22:01.129Z,13.38
2023-02-02T19:24:37.234Z,18.38
2023-02-02T19:27:14.664Z,12.35
2023-02-02T19:29:41.186Z,16.27
2023-02-02T19:32:23.030Z,8.75
2023-02-02T19:34:52.127Z,15.05
2023-02-02T19:37:21.454Z,11.65
2023-02-02T19:39:47.969Z,18.20
2023-02-02T19:42:14.424Z,14.75
2023-02-02T19:44:42.001Z,20.20
2023-02-02T19:47:21.533Z,20.60
2023-02-02T19:49:47.997Z,16.58
2023-02-02T19:52:23.107Z,15.23
2023-02-02T19:54:50.188Z,19.35
2023-02-02T19:57:22.605Z,16.75
2023-02-02T19:59:51.318Z,14.50
2023-02-02T20:02:31.474Z,18.20
2023-02-02T20:05:18.204Z,11.75
2023-02-02T20:07:45.222Z,15.50
2023-02-02T20:10:25.267Z,20.45
2023-02-02T20:12:52.934Z,18.92
2023-02-02T20:15:39.472Z,14.93
2023-02-02T20:18:14.024Z,18.35
2023-02-02T20:20:43.315Z,10.35
2023-02-02T20:23:27.611Z,16.55
2023-02-02T20:25:54.297Z,19.08
2023-02-02T20:28:41.540Z,19.10
2023-02-02T20:31:10.365Z,15.50
2023-02-02T20:33:37.165Z,22.25
2023-02-02T20:36:15.663Z,21.10
2023-02-02T20:38:42.193Z,14.52
2023-02-02T20:41:08.630Z,18.00
2023-02-02T20:43:35.793Z,18.67
2023-02-02T20:46:02.642Z,20.42
2023-02-02T20:48:29.269Z,17.90
2023-02-02T20:50:55.728Z,18.02
2023-02-02T20:53:22.341Z,17.00
2023-02-02T20:55:48.757Z,22.90
2023-02-02T20:58:15.246Z,21.92
2023-02-02T21:00:42.069Z,20.48
2023-02-02T21:03:08.652Z,15.73
2023-02-02T21:05:35.172Z,19.60
2023-02-02T21:08:01.956Z,20.85
2023-02-02T21:10:28.795Z,19.98
2023-02-02T21:12:55.504Z,21.52
2023-02-02T21:15:22.061Z,22.23
2023-02-02T21:17:48.506Z,19.13
2023-02-02T21:20:15.184Z,22.42
2023-02-02T21:22:41.982Z,28.13
2023-02-02T21:25:09.146Z,21.80
2023-02-02T21:27:35.951Z,22.35
2023-02-02T21:30:02.452Z,18.55
2023-02-02T21:32:29.059Z,15.77
2023-02-02T21:34:55.550Z,24.88
2023-02-02T21:37:21.999Z,18.20
2023-02-02T21:39:51.036Z,19.17
2023-02-02T21:42:21.091Z,16.08
2023-02-02T21:44:57.991Z,21.38
2023-02-02T21:47:51.740Z,20.63
2023-02-02T21:50:22.728Z,19.83
2023-02-02T21:52:49.279Z,21.67
2023-02-02T21:55:37.265Z,29.05
2023-02-02T21:58:19.141Z,25.58
2023-02-02T22:00:46.730Z,19.40
2023-02-02T22:03:40.326Z,19.70
2023-02-02T22:06:18.744Z,22.00
2023-02-02T22:08:45.331Z,18.42
2023-02-02T22:11:23.866Z,23.52
2023-02-02T22:13:52.560Z,20.30
2023-02-02T22:16:20.866Z,24.00
2023-02-02T22:18:47.626Z,22.38
2023-02-02T22:21:17.996Z,14.95
2023-02-02T22:23:46.070Z,24.02
2023-02-02T22:26:33.544Z,15.15
2023-02-02T22:29:01.990Z,19.08
2023-02-02T22:31:28.464Z,26.80
2023-02-02T22:33:54.952Z,13.73
2023-02-02T22:36:21.573Z,20.25
2023-02-02T22:38:48.036Z,16.60
2023-02-02T22:41:14.578Z,21.90
2023-02-02T22:43:41.151Z,19.92
2023-02-02T22:46:07.678Z,22.75
2023-02-02T22:48:34.134Z,19.88
2023-02-02T22:51:00.637Z,25.20
2023-02-02T22:53:27.188Z,23.17
2023-02-02T22:55:56.635Z,17.17
2023-02-02T22:58:24.594Z,19.10
2023-02-02T23:00:51.515Z,12.77
2023-02-02T23:03:18.143Z,12.32
2023-02-02T23:05:44.873Z,13.65
2023-02-02T23:08:11.322Z,20.08
2023-02-02T23:10:37.973Z,20.83
2023-02-02T23:13:05.936Z,13.52
2023-02-02T23:15:33.070Z,18.92
2023-02-02T23:17:59.716Z,18.08
2023-02-02T23:20:26.844Z,13.93
2023-02-02T23:22:53.490Z,19.48
2023-02-02T23:25:20.066Z,24.42
2023-02-02T23:27:46.625Z,24.15
2023-02-02T23:30:14.275Z,25.00
2023-02-02T23:32:41.393Z,17.98
2023-02-02T23:35:10.611Z,22.85
2023-02-02T23:37:37.621Z,13.27
2023-02-02T23:40:04.446Z,16.42
2023-02-02T23:42:30.856Z,14.88
2023-02-02T23:44:57.323Z,18.83
2023-02-02T23:47:23.889Z,18.55
2023-02-02T23:49:50.389Z,23.55
2023-02-02T23:52:17.149Z,22.40
2023-02-02T23:54:43.780Z,25.45
2023-02-02T23:57:10.534Z,16.58
2023-02-02T23:59:37.009Z,13.98
